createdAt,value
2023-07-18T00:02:14.542Z,21.30
2023-07-18T00:04:41.308Z,21.20
2023-07-18T00:07:08.639Z,21.20
2023-07-18T00:09:38.325Z,21.20
2023-07-18T00:12:06.884Z,21.20
2023-07-18T00:14:33.595Z,21.20
2023-07-18T00:17:00.240Z,21.20
2023-07-18T00:19:28.411Z,21.10
2023-07-18T00:21:55.626Z,21.10
2023-07-18T00:24:22.367Z,21.00
2023-07-18T00:26:49.050Z,21.00
2023-07-18T00:29:15.699Z,20.90
2023-07-18T00:31:42.524Z,20.80
2023-07-18T00:34:09.242Z,20.80
2023-07-18T00:36:36.006Z,20.80
2023-07-18T00:39:04.656Z,20.80
2023-07-18T00:41:31.422Z,20.80
2023-07-18T00:43:58.069Z,20.90
2023-07-18T00:46:25.341Z,20.90
2023-07-18T00:48:52.060Z,20.60
2023-07-18T00:51:19.488Z,20.60
2023-07-18T00:53:46.997Z,20.50
2023-07-18T00:56:14.592Z,20.50
2023-07-18T00:58:41.558Z,20.50
2023-07-18T01:01:08.446Z,20.50
2023-07-18T01:03:35.547Z,20.50
2023-07-18T01:06:02.375Z,20.50
2023-07-18T01:08:29.824Z,20.50
2023-07-18T01:10:56.508Z,20.50
2023-07-18T01:13:23.687Z,20.50
2023-07-18T01:15:50.483Z,20.50
2023-07-18T01:18:17.257Z,20.50
2023-07-18T01:20:46.892Z,20.50
2023-07-18T01:23:15.128Z,20.50
2023-07-18T01:25:43.464Z,20.50
2023-07-18T01:28:11.821Z,20.40
2023-07-18T01:30:38.865Z,20.40
2023-07-18T01:33:05.918Z,20.40
2023-07-18T01:35:32.809Z,20.30
2023-07-18T01:38:00.116Z,20.30
2023-07-18T01:40:26.955Z,20.20
2023-07-18T01:42:55.288Z,20.20
2023-07-18T01:45:23.700Z,20.00
2023-07-18T01:47:52.321Z,20.00
2023-07-18T01:50:19.688Z,19.90
2023-07-18T01:52:48.308Z,19.90
2023-07-18T01:55:15.975Z,19.80
2023-07-18T01:57:47.632Z,19.80
2023-07-18T02:00:21.221Z,19.70
2023-07-18T02:02:53.853Z,19.60
2023-07-18T02:05:26.139Z,19.60
2023-07-18T02:07:53.674Z,19.70
2023-07-18T02:10:22.015Z,19.60
2023-07-18T02:12:50.151Z,19.60
2023-07-18T02:15:17.117Z,19.50
2023-07-18T02:17:44.911Z,19.50
2023-07-18T02:20:13.165Z,19.40
2023-07-18T02:22:42.313Z,19.40
2023-07-18T02:25:10.181Z,19.30
2023-07-18T02:27:40.368Z,19.30
2023-07-18T02:30:12.736Z,19.30
2023-07-18T02:32:41.716Z,19.30
2023-07-18T02:35:09.699Z,19.30
2023-07-18T02:37:37.254Z,19.30
2023-07-18T02:40:09.367Z,19.30
2023-07-18T02:42:36.833Z,19.30
2023-07-18T02:45:04.171Z,19.40
2023-07-18T02:47:31.395Z,19.30
2023-07-18T02:49:58.095Z,19.20
2023-07-18T02:52:24.864Z,19.20
2023-07-18T02:54:51.595Z,19.30
2023-07-18T02:57:18.773Z,19.20
2023-07-18T02:59:45.767Z,19.10
2023-07-18T03:02:13.023Z,19.10
2023-07-18T03:04:40.767Z,19.10
2023-07-18T03:07:08.275Z,19.00
2023-07-18T03:09:36.076Z,19.00
2023-07-18T03:12:03.042Z,19.00
2023-07-18T03:14:30.501Z,19.00
2023-07-18T03:16:57.317Z,19.00
2023-07-18T03:19:24.142Z,19.00
2023-07-18T03:21:50.875Z,19.00
2023-07-18T03:24:19.408Z,19.00
2023-07-18T03:26:46.262Z,19.00
2023-07-18T03:29:13.058Z,18.90
2023-07-18T03:31:40.817Z,18.80
2023-07-18T03:34:07.929Z,18.90
2023-07-18T03:36:38.248Z,18.90
2023-07-18T03:39:05.371Z,18.90
2023-07-18T03:41:32.168Z,18.90
2023-07-18T03:43:59.278Z,18.90
2023-07-18T03:46:26.039Z,18.80
2023-07-18T03:48:53.027Z,18.80
2023-07-18T03:51:20.275Z,18.80
2023-07-18T03:53:48.357Z,18.80
2023-07-18T03:56:16.359Z,18.80
2023-07-18T03:58:44.016Z,18.80
2023-07-18T04:01:11.735Z,18.80
2023-07-18T04:03:39.333Z,18.80
2023-07-18T04:06:07.625Z,18.80
2023-07-18T04:08:34.808Z,18.80
2023-07-18T04:11:01.628Z,18.80
2023-07-18T04:13:28.448Z,18.70
2023-07-18T04:15:55.922Z,18.70
2023-07-18T04:18:23.263Z,18.70
2023-07-18T04:20:53.000Z,18.70
2023-07-18T04:23:19.895Z,18.70
2023-07-18T04:26:03.305Z,18.70
2023-07-18T04:28:35.078Z,18.70
2023-07-18T04:31:02.973Z,18.70
2023-07-18T04:33:34.907Z,18.70
2023-07-18T04:36:01.908Z,18.70
2023-07-18T04:38:28.920Z,18.70
2023-07-18T04:40:55.549Z,18.70
2023-07-18T04:43:22.269Z,18.70
2023-07-18T04:45:51.117Z,18.70
2023-07-18T04:48:20.100Z,18.80
2023-07-18T04:50:48.815Z,18.80
2023-07-18T04:53:15.474Z,18.80
2023-07-18T04:55:42.113Z,18.80
2023-07-18T04:58:09.314Z,18.90
2023-07-18T05:00:36.492Z,18.80
2023-07-18T05:03:03.596Z,18.90
2023-07-18T05:05:30.992Z,18.90
2023-07-18T05:08:01.983Z,18.90
2023-07-18T05:10:29.341Z,19.00
2023-07-18T05:12:57.114Z,19.00
2023-07-18T05:15:24.658Z,19.00
2023-07-18T05:17:51.638Z,19.00
2023-07-18T05:20:18.466Z,19.00
2023-07-18T05:22:45.825Z,19.10
2023-07-18T05:25:14.818Z,19.20
2023-07-18T05:27:42.442Z,19.20
2023-07-18T05:30:15.504Z,19.30
2023-07-18T05:32:43.162Z,19.40
2023-07-18T05:35:15.327Z,19.50
2023-07-18T05:37:43.820Z,19.70
2023-07-18T05:40:11.612Z,19.80
2023-07-18T05:42:42.949Z,19.90
2023-07-18T05:45:10.458Z,20.00
2023-07-18T05:47:38.310Z,20.10
2023-07-18T05:50:07.382Z,20.20
2023-07-18T05:52:34.754Z,20.30
2023-07-18T05:55:01.580Z,20.40
2023-07-18T05:57:28.599Z,20.40
2023-07-18T05:59:55.662Z,20.50
2023-07-18T06:02:22.979Z,20.50
2023-07-18T06:04:50.065Z,20.60
2023-07-18T06:07:17.340Z,20.70
2023-07-18T06:09:44.497Z,20.80
2023-07-18T06:12:12.956Z,20.80
2023-07-18T06:14:39.668Z,20.80
2023-07-18T06:17:06.627Z,20.80
2023-07-18T06:19:33.428Z,20.90
2023-07-18T06:22:00.225Z,20.90
2023-07-18T06:24:26.935Z,20.90
2023-07-18T06:26:53.644Z,20.90
2023-07-18T06:29:21.094Z,21.00
2023-07-18T06:31:48.858Z,21.00
2023-07-18T06:34:18.400Z,21.10
2023-07-18T06:36:46.793Z,21.10
2023-07-18T06:39:15.087Z,21.10
2023-07-18T06:41:42.914Z,21.20
2023-07-18T06:44:10.282Z,21.20
2023-07-18T06:46:37.490Z,21.20
2023-07-18T06:49:04.494Z,21.30
2023-07-18T06:51:31.370Z,21.30
2023-07-18T06:53:58.093Z,21.30
2023-07-18T06:56:25.012Z,21.30
2023-07-18T06:58:51.774Z,21.30
2023-07-18T07:01:18.930Z,21.40
2023-07-18T07:03:46.382Z,21.40
2023-07-18T07:06:13.776Z,21.50
2023-07-18T07:08:41.002Z,21.50
2023-07-18T07:11:08.819Z,21.60
2023-07-18T07:13:38.777Z,21.60
2023-07-18T07:16:06.260Z,21.70
2023-07-18T07:18:33.007Z,21.60
2023-07-18T07:21:00.593Z,21.70
2023-07-18T07:23:27.481Z,21.70
2023-07-18T07:25:54.176Z,21.80
2023-07-18T07:28:23.965Z,21.90
2023-07-18T07:30:52.182Z,21.90
2023-07-18T07:33:20.095Z,21.90
2023-07-18T07:35:47.067Z,22.00
2023-07-18T07:38:13.871Z,22.00
2023-07-18T07:40:40.532Z,22.10
2023-07-18T07:43:07.230Z,22.10
2023-07-18T07:45:33.906Z,22.20
2023-07-18T07:48:00.759Z,22.20
2023-07-18T07:50:27.478Z,22.30
2023-07-18T07:52:54.099Z,22.30
2023-07-18T07:55:20.773Z,22.30
2023-07-18T07:57:47.616Z,22.40
2023-07-18T08:00:14.736Z,22.40
2023-07-18T08:02:41.711Z,22.50
2023-07-18T08:05:09.461Z,22.60
2023-07-18T08:07:36.565Z,22.60
2023-07-18T08:10:03.945Z,22.70
2023-07-18T08:12:30.663Z,22.70
2023-07-18T08:14:57.363Z,22.70
2023-07-18T08:17:24.061Z,22.80
2023-07-18T08:19:50.772Z,22.80
2023-07-18T08:22:17.459Z,22.80
2023-07-18T08:24:44.768Z,23.00
2023-07-18T08:27:11.448Z,23.00
2023-07-18T08:29:38.306Z,23.10
2023-07-18T08:32:05.579Z,23.10
2023-07-18T08:34:32.315Z,23.20
2023-07-18T08:36:59.306Z,23.20
2023-07-18T08:39:26.005Z,23.30
2023-07-18T08:41:53.579Z,23.30
2023-07-18T08:44:21.416Z,23.40
2023-07-18T08:46:48.351Z,23.40
2023-07-18T08:49:18.034Z,23.50
2023-07-18T08:51:45.895Z,23.50
2023-07-18T08:54:13.979Z,23.60
2023-07-18T08:56:43.859Z,23.70
2023-07-18T08:59:11.389Z,23.80
2023-07-18T09:01:49.141Z,23.80
2023-07-18T09:04:16.672Z,23.80
2023-07-18T09:07:02.614Z,23.90
2023-07-18T09:09:29.384Z,24.00
2023-07-18T09:12:00.670Z,24.00
2023-07-18T09:14:32.322Z,24.10
2023-07-18T09:17:04.788Z,24.10
2023-07-18T09:19:49.590Z,24.10
2023-07-18T09:22:18.310Z,24.10
2023-07-18T09:24:48.312Z,24.20
2023-07-18T09:27:17.762Z,24.20
2023-07-18T09:29:49.321Z,24.30
2023-07-18T09:32:20.680Z,24.40
2023-07-18T09:35:00.588Z,24.50
2023-07-18T09:37:27.987Z,24.60
2023-07-18T09:39:57.990Z,24.60
2023-07-18T09:42:25.556Z,24.60
2023-07-18T09:44:53.554Z,24.70
2023-07-18T09:47:21.376Z,24.70
2023-07-18T09:49:48.261Z,24.80
2023-07-18T09:52:17.147Z,24.80
2023-07-18T09:54:44.690Z,25.00
2023-07-18T09:57:13.046Z,25.00
2023-07-18T09:59:41.063Z,25.00
2023-07-18T10:02:11.799Z,25.10
2023-07-18T10:04:39.265Z,25.10
2023-07-18T10:07:10.176Z,25.20
2023-07-18T10:09:37.970Z,25.10
2023-07-18T10:12:04.700Z,25.20
2023-07-18T10:14:53.858Z,25.30
2023-07-18T10:17:35.119Z,25.40
2023-07-18T10:20:31.374Z,25.40
2023-07-18T10:23:00.313Z,25.50
2023-07-18T10:25:30.091Z,25.60
2023-07-18T10:27:58.025Z,25.60
2023-07-18T10:30:24.948Z,25.70
2023-07-18T10:32:55.712Z,25.80
2023-07-18T10:35:25.927Z,25.90
2023-07-18T10:37:55.189Z,25.90
2023-07-18T10:40:37.830Z,26.10
2023-07-18T10:43:10.491Z,26.20
2023-07-18T10:45:41.880Z,26.30
2023-07-18T10:48:19.153Z,26.30
2023-07-18T10:50:47.310Z,26.30
2023-07-18T10:53:16.541Z,26.10
2023-07-18T10:55:45.443Z,26.00
2023-07-18T10:58:19.818Z,25.90
2023-07-18T11:00:48.397Z,25.90
2023-07-18T11:03:28.886Z,25.90
2023-07-18T11:05:55.883Z,25.90
2023-07-18T11:08:30.736Z,25.70
2023-07-18T11:11:03.618Z,25.80
2023-07-18T11:13:35.180Z,25.80
2023-07-18T11:16:13.524Z,25.90
2023-07-18T11:18:45.900Z,26.10
2023-07-18T11:21:14.000Z,26.20
2023-07-18T11:23:41.883Z,26.30
2023-07-18T11:26:17.924Z,26.50
2023-07-18T11:28:50.981Z,26.60
2023-07-18T11:34:06.355Z,26.70
2023-07-18T11:36:36.887Z,26.70
2023-07-18T11:39:07.942Z,26.80
2023-07-18T11:41:41.805Z,26.80
2023-07-18T11:44:09.812Z,26.70
2023-07-18T11:46:37.123Z,26.70
2023-07-18T11:49:07.245Z,26.60
2023-07-18T11:51:34.812Z,26.50
2023-07-18T11:54:03.129Z,26.40
2023-07-18T11:56:31.349Z,26.20
2023-07-18T11:58:58.064Z,26.10
2023-07-18T12:01:24.763Z,26.10
2023-07-18T12:03:55.627Z,26.10
2023-07-18T12:06:23.353Z,26.10
2023-07-18T12:08:50.609Z,25.90
2023-07-18T12:11:17.995Z,25.80
2023-07-18T12:13:45.164Z,25.70
2023-07-18T12:16:11.999Z,25.60
2023-07-18T12:18:40.167Z,25.60
2023-07-18T12:21:06.867Z,25.50
2023-07-18T12:23:33.742Z,25.50
2023-07-18T12:26:00.424Z,25.50
2023-07-18T12:28:27.081Z,25.50
2023-07-18T12:30:53.756Z,25.30
2023-07-18T12:33:22.617Z,25.30
2023-07-18T12:35:49.591Z,25.10
2023-07-18T12:38:16.562Z,24.80
2023-07-18T12:40:43.453Z,24.50
2023-07-18T12:43:10.071Z,24.40
2023-07-18T12:45:36.718Z,24.40
2023-07-18T12:48:03.594Z,24.30
2023-07-18T12:50:31.303Z,24.40
2023-07-18T12:52:59.614Z,24.30
2023-07-18T12:55:27.089Z,23.90
2023-07-18T12:57:53.968Z,23.70
2023-07-18T13:00:21.140Z,23.60
2023-07-18T13:02:49.321Z,23.40
2023-07-18T13:05:16.122Z,23.40
2023-07-18T13:07:42.819Z,23.40
2023-07-18T13:10:11.370Z,23.40
2023-07-18T13:12:39.558Z,23.50
2023-07-18T13:15:06.742Z,23.50
2023-07-18T13:17:33.899Z,23.50
2023-07-18T13:20:00.659Z,23.60
2023-07-18T13:22:27.966Z,23.60
2023-07-18T13:24:54.630Z,23.70
2023-07-18T13:27:22.465Z,23.70
2023-07-18T13:29:49.323Z,23.70
2023-07-18T13:32:16.124Z,23.80
2023-07-18T13:34:42.789Z,23.80
2023-07-18T13:37:09.521Z,23.80
2023-07-18T13:39:36.149Z,24.00
2023-07-18T13:42:03.122Z,24.20
2023-07-18T13:44:29.825Z,24.30
2023-07-18T13:46:56.550Z,24.40
2023-07-18T13:49:23.383Z,24.60
2023-07-18T13:51:50.829Z,24.60
2023-07-18T13:54:17.571Z,24.70
2023-07-18T13:56:44.645Z,24.80
2023-07-18T13:59:11.479Z,24.80
2023-07-18T14:01:38.757Z,25.00
2023-07-18T14:04:05.944Z,25.10
2023-07-18T14:06:32.654Z,25.20
2023-07-18T14:08:59.323Z,25.20
2023-07-18T14:11:27.664Z,25.20
2023-07-18T14:13:56.415Z,25.30
2023-07-18T14:16:23.437Z,25.40
2023-07-18T14:18:50.413Z,25.40
2023-07-18T14:21:17.191Z,25.40
2023-07-18T14:23:43.934Z,25.50
2023-07-18T14:26:10.966Z,25.70
2023-07-18T14:28:37.717Z,25.80
2023-07-18T14:31:04.422Z,25.80
2023-07-18T14:33:31.156Z,25.90
2023-07-18T14:35:58.082Z,26.00
2023-07-18T14:38:24.960Z,26.10
2023-07-18T14:40:52.541Z,26.10
2023-07-18T14:43:33.152Z,26.20
2023-07-18T14:46:01.250Z,26.30
2023-07-18T14:48:28.287Z,26.40
2023-07-18T14:50:55.272Z,26.40
2023-07-18T14:53:22.339Z,26.50
2023-07-18T14:55:49.248Z,26.60
2023-07-18T14:58:16.098Z,26.70
2023-07-18T15:00:42.922Z,26.80
2023-07-18T15:03:09.703Z,26.80
2023-07-18T15:05:36.405Z,26.90
2023-07-18T15:08:05.034Z,26.90
2023-07-18T15:10:31.980Z,26.90
2023-07-18T15:12:58.679Z,27.00
2023-07-18T15:15:25.372Z,27.00
2023-07-18T15:17:52.139Z,27.00
2023-07-18T15:20:18.906Z,27.00
2023-07-18T15:22:47.603Z,27.10
2023-07-18T15:25:14.416Z,27.30
2023-07-18T15:27:41.792Z,27.40
2023-07-18T15:30:10.623Z,27.50
2023-07-18T15:32:39.907Z,27.50
2023-07-18T15:35:07.359Z,27.50
2023-07-18T15:37:34.522Z,27.50
2023-07-18T15:40:01.666Z,27.50
2023-07-18T15:42:28.530Z,27.50
2023-07-18T15:44:56.936Z,27.60
2023-07-18T15:47:23.763Z,27.50
2023-07-18T15:49:50.528Z,27.50
2023-07-18T15:52:17.209Z,27.50
2023-07-18T15:54:43.997Z,27.60
2023-07-18T15:57:11.112Z,27.70
2023-07-18T15:59:38.378Z,27.70
2023-07-18T16:02:05.472Z,27.70
2023-07-18T16:04:32.510Z,27.70
2023-07-18T16:06:59.442Z,27.70
2023-07-18T16:09:27.509Z,27.60
2023-07-18T16:11:54.592Z,27.50
2023-07-18T16:14:21.313Z,27.60
2023-07-18T16:16:48.109Z,27.50
2023-07-18T16:19:14.949Z,27.60
2023-07-18T16:21:41.692Z,27.60
2023-07-18T16:24:10.420Z,27.60
2023-07-18T16:26:37.661Z,27.60
2023-07-18T16:29:04.336Z,27.50
2023-07-18T16:31:32.025Z,27.50
2023-07-18T16:33:58.746Z,27.50
2023-07-18T16:36:25.584Z,27.50
2023-07-18T16:38:52.815Z,27.40
2023-07-18T16:41:19.788Z,27.40
2023-07-18T16:43:46.629Z,27.40
2023-07-18T16:46:13.625Z,27.40
2023-07-18T16:48:40.239Z,27.60
2023-07-18T16:51:07.000Z,27.60
2023-07-18T16:53:33.758Z,27.60
2023-07-18T16:56:00.423Z,27.50
2023-07-18T16:58:27.582Z,27.50
2023-07-18T17:00:54.449Z,27.40
2023-07-18T17:03:21.970Z,27.40
2023-07-18T17:05:49.099Z,27.40
2023-07-18T17:08:15.930Z,27.40
2023-07-18T17:10:42.742Z,27.40
2023-07-18T17:13:09.507Z,27.40
2023-07-18T17:15:36.201Z,27.40
2023-07-18T17:18:05.343Z,27.40
2023-07-18T17:20:32.115Z,27.40
2023-07-18T17:22:59.551Z,27.50
2023-07-18T17:25:28.302Z,27.50
2023-07-18T17:27:55.089Z,27.50
2023-07-18T17:30:22.951Z,27.50
2023-07-18T17:32:49.700Z,27.60
2023-07-18T17:35:17.180Z,27.50
2023-07-18T17:37:43.984Z,27.60
2023-07-18T17:40:14.410Z,27.60
2023-07-18T17:42:42.966Z,27.60
2023-07-18T17:45:10.334Z,27.60
2023-07-18T17:47:37.563Z,27.60
2023-07-18T17:50:05.307Z,27.50
2023-07-18T17:52:32.233Z,27.50
2023-07-18T17:54:59.373Z,27.40
2023-07-18T17:57:27.030Z,27.30
2023-07-18T17:59:54.253Z,27.20
2023-07-18T18:02:21.189Z,27.20
2023-07-18T18:04:51.380Z,27.10
2023-07-18T18:07:18.042Z,27.00
2023-07-18T18:09:44.904Z,26.90
2023-07-18T18:12:11.557Z,26.80
2023-07-18T18:14:39.395Z,26.70
2023-07-18T18:17:06.439Z,26.80
2023-07-18T18:19:33.221Z,26.80
2023-07-18T18:21:59.916Z,26.70
2023-07-18T18:24:26.561Z,26.70
2023-07-18T18:26:53.279Z,26.60
2023-07-18T18:29:26.496Z,26.60
2023-07-18T18:31:53.955Z,26.50
2023-07-18T18:34:20.633Z,26.40
2023-07-18T18:36:47.473Z,26.40
2023-07-18T18:39:14.204Z,26.40
2023-07-18T18:41:40.881Z,26.40
2023-07-18T18:44:07.865Z,26.40
2023-07-18T18:46:35.545Z,26.30
2023-07-18T18:49:06.580Z,26.20
2023-07-18T18:51:33.593Z,26.20
2023-07-18T18:54:00.286Z,26.10
2023-07-18T18:56:26.920Z,26.10
2023-07-18T18:58:53.566Z,26.10
2023-07-18T19:01:20.353Z,26.10
2023-07-18T19:03:47.341Z,26.10
2023-07-18T19:06:14.102Z,26.10
2023-07-18T19:08:40.736Z,26.00
2023-07-18T19:11:08.563Z,26.10
2023-07-18T19:13:36.629Z,26.00
2023-07-18T19:16:03.464Z,25.90
2023-07-18T19:18:30.079Z,26.00
2023-07-18T19:20:56.757Z,25.90
2023-07-18T19:23:23.445Z,25.90
2023-07-18T19:25:50.554Z,25.90
2023-07-18T19:28:17.488Z,25.80
2023-07-18T19:30:44.267Z,25.80
2023-07-18T19:33:10.944Z,25.80
2023-07-18T19:35:37.685Z,25.70
2023-07-18T19:38:05.099Z,25.60
2023-07-18T19:40:32.261Z,25.60
2023-07-18T19:42:58.953Z,25.60
2023-07-18T19:45:25.710Z,25.60
2023-07-18T19:47:52.379Z,25.50
2023-07-18T19:50:19.323Z,25.50
2023-07-18T19:52:45.957Z,25.40
2023-07-18T19:55:12.695Z,25.30
2023-07-18T19:57:39.384Z,25.30
2023-07-18T20:00:07.208Z,25.30
2023-07-18T20:02:34.430Z,25.30
2023-07-18T20:05:01.241Z,25.30
2023-07-18T20:07:27.945Z,25.30
2023-07-18T20:09:55.887Z,25.20
2023-07-18T20:12:22.732Z,25.20
2023-07-18T20:14:49.415Z,25.20
2023-07-18T20:17:16.156Z,25.10
2023-07-18T20:19:44.461Z,25.10
2023-07-18T20:22:11.343Z,25.10
2023-07-18T20:24:38.014Z,25.00
2023-07-18T20:27:05.049Z,24.90
2023-07-18T20:29:32.151Z,24.90
2023-07-18T20:31:59.641Z,24.90
2023-07-18T20:34:26.377Z,24.90
2023-07-18T20:36:53.010Z,24.80
2023-07-18T20:39:19.679Z,24.80
2023-07-18T20:41:46.355Z,24.90
2023-07-18T20:44:15.465Z,24.80
2023-07-18T20:46:44.791Z,24.80
2023-07-18T20:49:12.077Z,24.80
2023-07-18T20:51:42.299Z,24.70
2023-07-18T20:54:09.030Z,24.70
2023-07-18T20:56:35.735Z,24.60
2023-07-18T20:59:04.363Z,24.60
2023-07-18T21:01:32.501Z,24.60
2023-07-18T21:03:59.287Z,24.60
2023-07-18T21:06:26.438Z,24.60
2023-07-18T21:08:53.210Z,24.60
2023-07-18T21:11:20.134Z,24.50
2023-07-18T21:13:47.225Z,24.30
2023-07-18T21:16:14.171Z,24.20
2023-07-18T21:18:40.844Z,24.10
2023-07-18T21:21:07.574Z,24.00
2023-07-18T21:23:34.280Z,24.10
2023-07-18T21:26:01.070Z,24.00
2023-07-18T21:28:28.221Z,23.90
2023-07-18T21:30:55.077Z,23.90
2023-07-18T21:33:21.751Z,24.00
2023-07-18T21:35:48.432Z,23.90
2023-07-18T21:38:15.072Z,23.90
2023-07-18T21:40:41.733Z,23.90
2023-07-18T21:43:08.352Z,23.80
2023-07-18T21:45:35.614Z,23.80
2023-07-18T21:48:02.392Z,23.80
2023-07-18T21:50:29.083Z,23.80
2023-07-18T21:52:55.709Z,23.80
2023-07-18T21:55:22.458Z,23.80
2023-07-18T21:57:49.100Z,23.80
2023-07-18T22:00:15.882Z,23.80
2023-07-18T22:02:42.652Z,23.80
2023-07-18T22:05:09.473Z,23.70
2023-07-18T22:07:36.220Z,23.70
2023-07-18T22:10:03.927Z,23.70
2023-07-18T22:12:30.703Z,23.60
2023-07-18T22:14:57.445Z,23.60
2023-07-18T22:17:24.308Z,23.60
2023-07-18T22:19:51.297Z,23.60
2023-07-18T22:22:18.012Z,23.60
2023-07-18T22:24:44.885Z,23.60
2023-07-18T22:27:11.643Z,23.60
2023-07-18T22:29:38.526Z,23.60
2023-07-18T22:32:06.237Z,23.60
2023-07-18T22:34:34.392Z,23.50
2023-07-18T22:37:01.301Z,23.60
2023-07-18T22:39:35.173Z,23.50
2023-07-18T22:42:32.937Z,23.50
2023-07-18T22:44:59.558Z,23.50
2023-07-18T22:47:26.330Z,23.40
2023-07-18T22:49:53.068Z,23.50
2023-07-18T22:52:20.081Z,23.40
2023-07-18T22:54:48.176Z,23.40
2023-07-18T22:57:15.701Z,23.40
2023-07-18T22:59:42.458Z,23.30
2023-07-18T23:02:09.318Z,23.30
2023-07-18T23:04:36.489Z,23.30
2023-07-18T23:07:03.756Z,23.30
2023-07-18T23:09:30.518Z,23.20
2023-07-18T23:11:57.205Z,23.20
2023-07-18T23:14:24.013Z,23.20
2023-07-18T23:16:51.210Z,23.10
2023-07-18T23:19:18.752Z,23.10
2023-07-18T23:21:46.913Z,23.10
2023-07-18T23:24:13.681Z,23.00
2023-07-18T23:26:40.360Z,23.00
2023-07-18T23:29:07.125Z,22.90
2023-07-18T23:31:33.830Z,22.90
2023-07-18T23:34:01.322Z,22.90
2023-07-18T23:36:28.020Z,22.90
2023-07-18T23:38:55.226Z,22.80
2023-07-18T23:41:22.182Z,22.80
2023-07-18T23:43:49.056Z,22.80
2023-07-18T23:46:15.824Z,22.80
2023-07-18T23:48:42.856Z,22.80
2023-07-18T23:51:09.581Z,22.80
2023-07-18T23:53:36.309Z,22.80
2023-07-18T23:56:03.143Z,22.80
2023-07-18T23:58:29.918Z,22.80
